createdAt,value
2017-12-01T00:00:03.076Z,30.50
2017-12-01T00:01:05.532Z,27.45
2017-12-01T00:02:08.021Z,29.63
2017-12-01T00:03:10.493Z,30.15
2017-12-01T00:04:12.967Z,28.85
2017-12-01T00:05:15.431Z,29.05
2017-12-01T00:06:17.909Z,26.62
2017-12-01T00:07:20.392Z,28.45
2017-12-01T00:08:22.865Z,27.98
2017-12-01T00:09:25.414Z,27.10
2017-12-01T00:10:27.879Z,26.27
2017-12-01T00:11:30.344Z,27.08
2017-12-01T00:12:32.826Z,28.00
2017-12-01T00:13:35.296Z,28.55
2017-12-01T00:14:37.805Z,27.17
2017-12-01T00:15:40.270Z,29.17
2017-12-01T00:16:42.740Z,27.40
2017-12-01T00:17:45.240Z,28.23
2017-12-01T00:18:47.700Z,26.55
2017-12-01T00:19:50.173Z,25.62
2017-12-01T00:20:52.627Z,27.75
2017-12-01T00:21:55.100Z,26.90
2017-12-01T00:22:57.579Z,27.30
2017-12-01T00:24:00.042Z,24.75
2017-12-01T00:25:02.495Z,24.98
2017-12-01T00:26:04.965Z,24.08
2017-12-01T00:27:07.418Z,25.40
2017-12-01T00:28:09.898Z,24.77
2017-12-01T00:29:12.364Z,23.20
2017-12-01T00:30:14.818Z,25.00
2017-12-01T00:31:17.330Z,23.73
2017-12-01T00:32:19.791Z,24.92
2017-12-01T00:33:22.279Z,24.80
2017-12-01T00:34:24.748Z,25.45
2017-12-01T00:35:27.228Z,25.55
2017-12-01T00:36:29.689Z,25.12
2017-12-01T00:37:32.151Z,27.55
2017-12-01T00:38:34.631Z,26.52
2017-12-01T00:39:37.110Z,24.50
2017-12-01T00:40:39.578Z,24.27
2017-12-01T00:41:42.062Z,25.80
2017-12-01T00:42:44.522Z,25.65
2017-12-01T00:43:47.008Z,26.15
2017-12-01T00:44:49.472Z,28.33
2017-12-01T00:45:51.931Z,25.73
2017-12-01T00:46:54.397Z,26.30
2017-12-01T00:47:56.850Z,25.88
2017-12-01T00:48:59.346Z,27.58
2017-12-01T00:50:01.816Z,27.37
2017-12-01T00:51:04.292Z,28.15
2017-12-01T00:52:06.784Z,29.30
2017-12-01T00:53:09.260Z,25.80
2017-12-01T00:54:11.758Z,27.08
2017-12-01T00:55:14.240Z,27.62
2017-12-01T00:56:16.707Z,26.25
2017-12-01T00:57:19.175Z,26.80
2017-12-01T00:58:21.658Z,28.80
2017-12-01T00:59:24.153Z,28.67
2017-12-01T01:00:26.606Z,27.95
2017-12-01T01:01:29.072Z,27.23
2017-12-01T01:02:31.540Z,29.98
2017-12-01T01:03:34.021Z,28.45
2017-12-01T01:04:36.498Z,28.95
2017-12-01T01:05:38.959Z,28.05
2017-12-01T01:06:41.440Z,28.20
2017-12-01T01:07:43.908Z,27.60
2017-12-01T01:08:46.393Z,28.90
2017-12-01T01:09:48.871Z,28.62
2017-12-01T01:10:51.326Z,28.42
2017-12-01T01:11:53.787Z,30.27
2017-12-01T01:12:56.257Z,27.98
2017-12-01T01:13:58.714Z,28.20
2017-12-01T01:15:01.217Z,28.20
2017-12-01T01:16:03.683Z,28.45
2017-12-01T01:17:06.193Z,28.40
2017-12-01T01:18:08.661Z,28.48
2017-12-01T01:19:11.119Z,30.85
2017-12-01T01:20:13.600Z,33.35
2017-12-01T01:21:16.074Z,30.08
2017-12-01T01:22:18.542Z,31.05
2017-12-01T01:23:21.017Z,33.25
2017-12-01T01:24:23.473Z,32.45
2017-12-01T01:25:25.946Z,31.25
2017-12-01T01:26:28.428Z,32.97
2017-12-01T01:27:30.886Z,33.25
2017-12-01T01:28:33.364Z,33.10
2017-12-01T01:29:35.833Z,32.28
2017-12-01T01:30:38.332Z,30.85
2017-12-01T01:31:40.800Z,29.12
2017-12-01T01:32:43.266Z,28.95
2017-12-01T01:33:45.727Z,30.15
2017-12-01T01:34:48.184Z,30.08
2017-12-01T01:35:50.667Z,27.85
2017-12-01T01:36:53.153Z,29.48
2017-12-01T01:37:55.609Z,30.75
2017-12-01T01:38:58.108Z,29.45
2017-12-01T01:40:00.589Z,27.85
2017-12-01T01:41:03.106Z,31.08
2017-12-01T01:42:05.563Z,32.08
2017-12-01T01:43:08.041Z,28.70
2017-12-01T01:44:10.502Z,31.98
2017-12-01T01:45:12.977Z,30.52
2017-12-01T01:46:15.473Z,29.05
2017-12-01T01:47:17.930Z,29.08
2017-12-01T01:48:20.395Z,26.37
2017-12-01T01:49:22.856Z,28.95
2017-12-01T01:50:25.315Z,27.87
2017-12-01T01:51:27.813Z,27.95
2017-12-01T01:52:30.292Z,26.55
2017-12-01T01:53:32.760Z,28.60
2017-12-01T01:54:35.228Z,29.25
2017-12-01T01:55:37.688Z,27.02
2017-12-01T01:56:40.163Z,26.58
2017-12-01T01:57:42.967Z,26.10
2017-12-01T01:58:45.423Z,26.98
2017-12-01T01:59:47.887Z,26.80
2017-12-01T02:00:50.362Z,29.05
2017-12-01T02:01:52.871Z,27.35
2017-12-01T02:02:55.328Z,25.25
2017-12-01T02:03:57.804Z,28.42
2017-12-01T02:05:00.289Z,29.48
2017-12-01T02:06:02.767Z,28.98
2017-12-01T02:07:05.261Z,29.98
2017-12-01T02:08:07.722Z,29.40
2017-12-01T02:09:10.180Z,29.10
2017-12-01T02:10:12.650Z,27.98
2017-12-01T02:11:15.170Z,30.08
2017-12-01T02:12:17.612Z,30.37
2017-12-01T02:13:20.084Z,29.90
2017-12-01T02:14:22.557Z,28.70
2017-12-01T02:15:25.014Z,27.15
2017-12-01T02:16:27.473Z,25.42
2017-12-01T02:17:29.947Z,25.48
2017-12-01T02:18:32.406Z,25.60
2017-12-01T02:19:34.878Z,25.65
2017-12-01T02:20:37.330Z,25.12
2017-12-01T02:21:39.812Z,26.10
2017-12-01T02:22:42.291Z,26.48
2017-12-01T02:23:44.765Z,28.67
2017-12-01T02:24:47.237Z,27.25
2017-12-01T02:25:49.691Z,24.52
2017-12-01T02:26:52.142Z,24.42
2017-12-01T02:27:54.636Z,26.45
2017-12-01T02:28:57.110Z,26.58
2017-12-01T02:29:59.566Z,27.73
2017-12-01T02:31:02.036Z,25.52
2017-12-01T02:32:04.495Z,26.17
2017-12-01T02:33:07.035Z,24.98
2017-12-01T02:34:09.499Z,27.02
2017-12-01T02:35:11.971Z,24.58
2017-12-01T02:36:14.427Z,27.37
2017-12-01T02:37:16.897Z,26.80
2017-12-01T02:38:19.394Z,25.65
2017-12-01T02:39:21.851Z,25.85
2017-12-01T02:40:24.315Z,26.65
2017-12-01T02:41:26.787Z,27.00
2017-12-01T02:42:29.277Z,25.83
2017-12-01T02:43:31.795Z,26.42
2017-12-01T02:44:34.269Z,26.33
2017-12-01T02:45:36.745Z,24.35
2017-12-01T02:46:39.203Z,24.90
2017-12-01T02:47:41.666Z,22.92
2017-12-01T02:48:44.166Z,25.15
2017-12-01T02:49:46.647Z,25.58
2017-12-01T02:50:49.108Z,25.08
2017-12-01T02:51:51.567Z,26.45
2017-12-01T02:52:54.142Z,26.20
2017-12-01T02:53:56.646Z,26.00
2017-12-01T02:54:59.112Z,24.50
2017-12-01T02:56:01.589Z,26.60
2017-12-01T02:57:04.065Z,25.23
2017-12-01T02:58:06.527Z,25.02
2017-12-01T02:59:09.006Z,26.85
2017-12-01T03:00:11.482Z,26.25
2017-12-01T03:01:13.954Z,25.02
2017-12-01T03:02:16.429Z,26.50
2017-12-01T03:03:18.887Z,26.17
2017-12-01T03:04:21.381Z,26.08
2017-12-01T03:05:23.857Z,27.35
2017-12-01T03:06:26.322Z,26.87
2017-12-01T03:07:28.851Z,28.70
2017-12-01T03:08:31.318Z,27.77
2017-12-01T03:09:33.949Z,26.15
2017-12-01T03:10:36.425Z,26.00
2017-12-01T03:11:38.896Z,27.50
2017-12-01T03:12:41.378Z,29.00
2017-12-01T03:13:43.836Z,26.23
2017-12-01T03:14:46.320Z,28.33
2017-12-01T03:15:48.775Z,27.50
2017-12-01T03:16:51.235Z,24.90
2017-12-01T03:17:53.695Z,27.08
2017-12-01T03:18:56.151Z,24.83
2017-12-01T03:19:58.631Z,24.48
2017-12-01T03:21:01.105Z,26.70
2017-12-01T03:22:03.568Z,26.35
2017-12-01T03:23:06.035Z,26.17
2017-12-01T03:24:08.490Z,25.60
2017-12-01T03:25:10.984Z,26.05
2017-12-01T03:26:13.444Z,28.62
2017-12-01T03:27:15.913Z,26.35
2017-12-01T03:28:18.388Z,27.73
2017-12-01T03:29:20.873Z,28.92
2017-12-01T03:30:23.372Z,27.45
2017-12-01T03:31:25.843Z,28.58
2017-12-01T03:32:28.312Z,27.25
2017-12-01T03:33:30.766Z,28.55
2017-12-01T03:34:33.226Z,29.92
2017-12-01T03:35:35.726Z,28.45
2017-12-01T03:36:38.201Z,26.83
2017-12-01T03:37:40.673Z,26.52
2017-12-01T03:38:43.158Z,26.02
2017-12-01T03:39:45.630Z,25.67
2017-12-01T03:40:48.100Z,27.30
2017-12-01T03:41:50.558Z,26.95
2017-12-01T03:42:53.024Z,26.65
2017-12-01T03:43:55.507Z,27.50
2017-12-01T03:44:57.966Z,28.35
2017-12-01T03:46:00.506Z,26.60
2017-12-01T03:47:02.985Z,26.98
2017-12-01T03:48:05.527Z,27.87
2017-12-01T03:49:07.990Z,28.50
2017-12-01T03:50:10.598Z,28.42
2017-12-01T03:51:13.648Z,29.58
2017-12-01T03:52:16.125Z,27.90
2017-12-01T03:53:18.623Z,29.30
2017-12-01T03:54:21.078Z,28.08
2017-12-01T03:55:23.558Z,28.73
2017-12-01T03:56:26.069Z,26.15
2017-12-01T03:57:28.549Z,24.10
2017-12-01T03:58:31.026Z,24.15
2017-12-01T03:59:33.506Z,24.87
2017-12-01T04:00:35.975Z,23.60
2017-12-01T04:01:38.471Z,26.70
2017-12-01T04:02:40.956Z,25.27
2017-12-01T04:03:43.414Z,26.20
2017-12-01T04:04:45.869Z,24.27
2017-12-01T04:05:48.326Z,26.67
2017-12-01T04:06:50.829Z,24.52
2017-12-01T04:07:53.300Z,25.98
2017-12-01T04:08:55.777Z,26.52
2017-12-01T04:09:58.248Z,27.13
2017-12-01T04:11:00.717Z,28.80
2017-12-01T04:12:03.277Z,27.92
2017-12-01T04:13:05.730Z,27.52
2017-12-01T04:14:08.201Z,27.67
2017-12-01T04:15:10.668Z,27.83
2017-12-01T04:16:13.136Z,26.00
2017-12-01T04:17:15.625Z,26.87
2017-12-01T04:18:18.129Z,26.77
2017-12-01T04:19:20.600Z,25.98
2017-12-01T04:20:23.054Z,26.98
2017-12-01T04:21:25.520Z,25.50
2017-12-01T04:22:28.021Z,25.55
2017-12-01T04:23:30.504Z,24.10
2017-12-01T04:24:32.981Z,25.20
2017-12-01T04:25:35.443Z,25.88
2017-12-01T04:26:37.903Z,23.10
2017-12-01T04:27:40.392Z,23.27
2017-12-01T04:28:42.851Z,24.63
2017-12-01T04:29:45.310Z,23.58
2017-12-01T04:30:47.765Z,25.55
2017-12-01T04:31:50.245Z,25.88
2017-12-01T04:32:52.726Z,25.12
2017-12-01T04:33:55.275Z,25.50
2017-12-01T04:34:57.734Z,25.60
2017-12-01T04:36:00.230Z,24.55
2017-12-01T04:37:02.692Z,24.23
2017-12-01T04:38:05.181Z,24.92
2017-12-01T04:39:07.659Z,23.77
2017-12-01T04:40:10.141Z,24.75
2017-12-01T04:41:12.609Z,23.40
2017-12-01T04:42:15.085Z,24.17
2017-12-01T04:43:17.604Z,24.73
2017-12-01T04:44:20.076Z,26.00
2017-12-01T04:45:22.559Z,25.12
2017-12-01T04:46:25.016Z,23.55
2017-12-01T04:47:27.470Z,24.70
2017-12-01T04:48:29.946Z,22.23
2017-12-01T04:49:32.403Z,25.60
2017-12-01T04:50:34.862Z,24.60
2017-12-01T04:51:37.323Z,26.50
2017-12-01T04:52:39.797Z,25.08
2017-12-01T04:53:42.303Z,25.83
2017-12-01T04:54:44.754Z,26.30
2017-12-01T04:55:47.253Z,27.27
2017-12-01T04:56:49.744Z,26.80
2017-12-01T04:57:52.220Z,26.30
2017-12-01T04:58:54.715Z,26.00
2017-12-01T04:59:57.186Z,24.87
2017-12-01T05:00:59.680Z,26.25
2017-12-01T05:02:02.161Z,28.58
2017-12-01T05:03:04.652Z,27.45
2017-12-01T05:04:07.135Z,30.48
2017-12-01T05:05:09.595Z,34.05
2017-12-01T05:06:12.072Z,29.70
2017-12-01T05:07:14.549Z,28.67
2017-12-01T05:08:17.021Z,26.98
2017-12-01T05:09:19.499Z,29.50
2017-12-01T05:10:21.980Z,27.33
2017-12-01T05:11:24.468Z,25.37
2017-12-01T05:12:26.930Z,26.62
2017-12-01T05:13:29.447Z,28.90
2017-12-01T05:14:31.949Z,28.25
2017-12-01T05:15:34.414Z,25.85
2017-12-01T05:16:36.892Z,27.02
2017-12-01T05:17:39.364Z,26.50
2017-12-01T05:18:41.874Z,26.52
2017-12-01T05:19:44.374Z,26.98
2017-12-01T05:20:46.840Z,27.02
2017-12-01T05:21:49.320Z,27.90
2017-12-01T05:22:51.801Z,26.00
2017-12-01T05:23:54.289Z,25.95
2017-12-01T05:24:56.793Z,25.83
2017-12-01T05:25:59.251Z,25.95
2017-12-01T05:27:01.724Z,27.02
2017-12-01T05:28:04.203Z,27.92
2017-12-01T05:29:06.681Z,25.02
2017-12-01T05:30:09.194Z,25.85
2017-12-01T05:31:11.656Z,26.17
2017-12-01T05:32:14.119Z,25.62
2017-12-01T05:33:16.584Z,26.05
2017-12-01T05:34:19.055Z,26.70
2017-12-01T05:35:21.535Z,25.65
2017-12-01T05:36:24.003Z,27.30
2017-12-01T05:37:26.469Z,26.00
2017-12-01T05:38:28.944Z,26.33
2017-12-01T05:39:31.421Z,28.62
2017-12-01T05:40:33.906Z,27.00
2017-12-01T05:41:36.376Z,28.62
2017-12-01T05:42:38.843Z,27.65
2017-12-01T05:43:41.321Z,27.87
2017-12-01T05:44:43.841Z,27.60
2017-12-01T05:45:46.315Z,26.65
2017-12-01T05:46:48.806Z,26.67
2017-12-01T05:47:51.285Z,27.05
2017-12-01T05:48:53.764Z,25.35
2017-12-01T05:49:56.232Z,24.75
2017-12-01T05:50:58.729Z,26.15
2017-12-01T05:52:01.187Z,25.50
2017-12-01T05:53:03.651Z,26.17
2017-12-01T05:54:06.149Z,25.92
2017-12-01T05:55:08.615Z,25.30
2017-12-01T05:56:11.121Z,26.45
2017-12-01T05:57:13.648Z,29.23
2017-12-01T05:58:16.134Z,29.02
2017-12-01T05:59:18.608Z,27.85
2017-12-01T06:00:21.067Z,29.58
2017-12-01T06:01:23.550Z,29.25
2017-12-01T06:02:26.012Z,29.30
2017-12-01T06:03:28.486Z,29.95
2017-12-01T06:04:30.954Z,32.72
2017-12-01T06:05:33.457Z,57.50
2017-12-01T06:06:35.968Z,48.45
2017-12-01T06:07:38.449Z,55.45
2017-12-01T06:08:40.910Z,36.97
2017-12-01T06:09:43.396Z,33.90
2017-12-01T06:10:45.878Z,60.38
2017-12-01T06:11:48.364Z,40.08
2017-12-01T06:12:50.840Z,43.97
2017-12-01T06:13:53.310Z,31.12
2017-12-01T06:14:55.795Z,27.77
2017-12-01T06:15:58.406Z,26.45
2017-12-01T06:17:00.939Z,36.20
2017-12-01T06:18:03.429Z,33.08
2017-12-01T06:19:05.921Z,29.92
2017-12-01T06:20:08.397Z,31.52
2017-12-01T06:21:10.888Z,31.12
2017-12-01T06:22:13.396Z,34.35
2017-12-01T06:23:15.872Z,27.90
2017-12-01T06:24:18.361Z,30.88
2017-12-01T06:25:20.833Z,33.47
2017-12-01T06:26:23.309Z,28.23
2017-12-01T06:27:25.818Z,32.53
2017-12-01T06:28:28.313Z,30.17
2017-12-01T06:29:30.782Z,31.15
2017-12-01T06:30:33.248Z,36.95
2017-12-01T06:31:35.743Z,40.83
2017-12-01T06:32:38.290Z,29.92
2017-12-01T06:33:40.773Z,31.90
2017-12-01T06:34:43.284Z,32.85
2017-12-01T06:35:45.743Z,31.20
2017-12-01T06:36:48.237Z,36.88
2017-12-01T06:37:50.739Z,35.60
2017-12-01T06:38:53.226Z,31.90
2017-12-01T06:39:55.722Z,43.50
2017-12-01T06:40:58.195Z,32.50
2017-12-01T06:42:00.664Z,28.05
2017-12-01T06:43:03.203Z,30.83
2017-12-01T06:44:05.668Z,25.35
2017-12-01T06:45:08.146Z,26.30
2017-12-01T06:46:10.625Z,36.42
2017-12-01T06:47:13.086Z,35.05
2017-12-01T06:48:15.590Z,27.90
2017-12-01T06:49:18.065Z,29.52
2017-12-01T06:50:20.535Z,35.00
2017-12-01T06:51:23.066Z,28.20
2017-12-01T06:52:25.534Z,29.27
2017-12-01T06:53:28.016Z,28.87
2017-12-01T06:54:30.483Z,29.63
2017-12-01T06:55:32.955Z,28.35
2017-12-01T06:56:35.433Z,38.05
2017-12-01T06:57:37.907Z,41.13
2017-12-01T06:58:40.391Z,30.62
2017-12-01T06:59:42.953Z,33.28
2017-12-01T07:00:45.794Z,29.87
2017-12-01T07:01:48.308Z,28.62
2017-12-01T07:02:50.767Z,32.00
2017-12-01T07:03:53.269Z,35.58
2017-12-01T07:04:55.756Z,38.55
2017-12-01T07:05:58.354Z,34.72
2017-12-01T07:07:00.827Z,31.83
2017-12-01T07:08:03.290Z,32.10
2017-12-01T07:09:05.789Z,29.42
2017-12-01T07:10:08.264Z,32.78
2017-12-01T07:11:10.722Z,30.55
2017-12-01T07:12:13.197Z,34.53
2017-12-01T07:13:15.655Z,29.25
2017-12-01T07:14:18.139Z,29.45
2017-12-01T07:15:20.594Z,30.77
2017-12-01T07:16:23.050Z,31.83
2017-12-01T07:17:25.518Z,40.47
2017-12-01T07:18:27.987Z,38.58
2017-12-01T07:19:30.476Z,38.50
2017-12-01T07:20:32.951Z,35.10
2017-12-01T07:21:35.414Z,28.83
2017-12-01T07:22:37.888Z,26.75
2017-12-01T07:23:40.461Z,37.53
2017-12-01T07:24:42.968Z,34.45
2017-12-01T07:25:45.449Z,30.83
2017-12-01T07:26:59.715Z,27.80
2017-12-01T07:28:02.174Z,26.80
2017-12-01T07:29:04.667Z,26.75
2017-12-01T07:30:07.165Z,30.10
2017-12-01T07:31:09.704Z,28.80
2017-12-01T07:32:12.162Z,26.25
2017-12-01T07:33:14.618Z,32.90
2017-12-01T07:34:17.093Z,27.95
2017-12-01T07:35:19.597Z,28.30
2017-12-01T07:36:22.060Z,27.55
2017-12-01T07:37:24.537Z,25.70
2017-12-01T07:38:27.013Z,25.00
2017-12-01T07:39:29.474Z,25.37
2017-12-01T07:40:31.987Z,35.17
2017-12-01T07:41:34.447Z,25.98
2017-12-01T07:42:36.921Z,34.67
2017-12-01T07:43:39.404Z,29.17
2017-12-01T07:46:23.747Z,25.70
2017-12-01T07:47:26.219Z,24.73
2017-12-01T07:48:28.687Z,27.90
2017-12-01T07:49:31.169Z,23.85
2017-12-01T07:50:33.645Z,24.65
2017-12-01T07:51:36.121Z,23.90
2017-12-01T07:52:38.653Z,23.73
2017-12-01T07:53:41.130Z,23.90
2017-12-01T07:54:43.617Z,25.17
2017-12-01T07:55:46.096Z,26.42
2017-12-01T07:56:48.570Z,24.40
2017-12-01T07:57:51.048Z,26.27
2017-12-01T07:58:53.604Z,25.25
2017-12-01T07:59:56.073Z,28.33
2017-12-01T08:00:58.561Z,25.58
2017-12-01T08:02:01.048Z,27.37
2017-12-01T08:03:03.514Z,26.17
2017-12-01T08:04:05.992Z,27.50
2017-12-01T08:05:08.451Z,28.10
2017-12-01T08:06:10.916Z,29.67
2017-12-01T08:07:13.396Z,27.13
2017-12-01T08:08:15.854Z,25.33
2017-12-01T08:09:18.331Z,24.73
2017-12-01T08:10:20.792Z,27.67
2017-12-01T08:11:23.257Z,26.30
2017-12-01T08:12:25.741Z,26.33
2017-12-01T08:13:28.217Z,26.40
2017-12-01T08:14:30.693Z,26.55
2017-12-01T08:15:33.154Z,26.52
2017-12-01T08:16:47.474Z,29.73
2017-12-01T08:17:49.949Z,27.73
2017-12-01T08:19:02.408Z,28.83
2017-12-01T08:20:04.871Z,29.17
2017-12-01T08:21:07.355Z,29.75
2017-12-01T08:22:21.428Z,29.52
2017-12-01T08:25:16.160Z,26.42
2017-12-01T08:26:18.622Z,27.45
2017-12-01T08:27:21.117Z,28.27
2017-12-01T08:28:23.574Z,28.08
2017-12-01T08:29:26.035Z,25.95
2017-12-01T08:30:28.503Z,28.27
2017-12-01T08:31:30.971Z,31.70
2017-12-01T08:32:33.465Z,32.25
2017-12-01T08:33:35.941Z,27.20
2017-12-01T08:34:38.417Z,26.80
2017-12-01T08:35:40.879Z,27.02
2017-12-01T08:36:43.340Z,29.83
2017-12-01T08:37:45.823Z,26.60
2017-12-01T08:38:48.296Z,25.85
2017-12-01T08:39:50.758Z,27.17
2017-12-01T08:40:53.234Z,29.98
2017-12-01T08:41:55.702Z,27.87
2017-12-01T08:42:58.205Z,27.45
2017-12-01T08:44:00.676Z,26.75
2017-12-01T08:45:03.150Z,26.55
2017-12-01T08:46:05.629Z,25.50
2017-12-01T08:47:08.086Z,27.80
2017-12-01T08:48:10.596Z,25.30
2017-12-01T08:49:13.073Z,26.90
2017-12-01T08:50:15.553Z,24.90
2017-12-01T08:51:18.011Z,25.27
2017-12-01T08:52:20.474Z,25.42
2017-12-01T08:53:22.967Z,25.50
2017-12-01T08:54:25.426Z,27.40
2017-12-01T08:55:27.912Z,27.20
2017-12-01T08:56:30.370Z,26.80
2017-12-01T08:57:32.855Z,25.40
2017-12-01T08:58:35.338Z,27.33
2017-12-01T08:59:37.813Z,27.23
2017-12-01T09:00:40.271Z,27.75
2017-12-01T09:01:42.731Z,25.65
2017-12-01T09:02:45.212Z,24.98
2017-12-01T09:03:47.711Z,24.73
2017-12-01T09:04:50.186Z,27.20
2017-12-01T09:05:52.660Z,26.70
2017-12-01T09:06:55.123Z,27.02
2017-12-01T09:07:57.605Z,25.58
2017-12-01T09:09:00.096Z,28.30
2017-12-01T09:10:02.562Z,26.67
2017-12-01T09:11:05.021Z,27.08
2017-12-01T09:12:07.486Z,26.00
2017-12-01T09:13:09.949Z,26.80
2017-12-01T09:14:12.474Z,28.30
2017-12-01T09:15:14.951Z,25.17
2017-12-01T09:16:17.446Z,26.33
2017-12-01T09:17:19.906Z,24.80
2017-12-01T09:18:22.378Z,25.55
2017-12-01T09:19:25.342Z,25.67
2017-12-01T09:20:27.812Z,27.13
2017-12-01T09:21:30.390Z,24.80
2017-12-01T09:22:32.864Z,25.70
2017-12-01T09:23:35.336Z,24.65
2017-12-01T09:24:37.822Z,24.45
2017-12-01T09:25:40.297Z,25.55
2017-12-01T09:26:42.781Z,25.85
2017-12-01T09:27:45.263Z,25.83
2017-12-01T09:28:47.740Z,23.70
2017-12-01T09:29:50.215Z,27.00
2017-12-01T09:30:52.695Z,27.95
2017-12-01T09:31:55.158Z,25.50
2017-12-01T09:32:57.623Z,26.52
2017-12-01T09:34:00.087Z,27.48
2017-12-01T09:35:02.587Z,26.25
2017-12-01T09:36:05.042Z,25.42
2017-12-01T09:37:07.510Z,25.83
2017-12-01T09:38:09.987Z,26.37
2017-12-01T09:39:12.446Z,24.75
2017-12-01T09:40:14.931Z,27.30
2017-12-01T09:41:17.399Z,26.48
2017-12-01T09:42:19.853Z,28.08
2017-12-01T09:43:22.333Z,26.75
2017-12-01T09:44:24.821Z,27.00
2017-12-01T09:45:27.428Z,27.40
2017-12-01T09:46:29.987Z,28.98
2017-12-01T09:47:32.466Z,26.70
2017-12-01T09:48:34.941Z,27.02
2017-12-01T09:49:37.399Z,28.92
2017-12-01T09:50:39.879Z,26.70
2017-12-01T09:51:42.407Z,26.20
2017-12-01T09:52:44.881Z,25.55
2017-12-01T09:53:47.354Z,28.10
2017-12-01T09:54:49.814Z,26.85
2017-12-01T09:55:52.311Z,27.65
2017-12-01T09:56:54.789Z,28.17
2017-12-01T09:57:57.265Z,26.80
2017-12-01T09:58:59.732Z,29.83
2017-12-01T10:00:02.190Z,27.08
2017-12-01T10:01:04.689Z,25.73
2017-12-01T10:02:07.164Z,27.13
2017-12-01T10:03:09.626Z,26.33
2017-12-01T10:04:12.084Z,25.88
2017-12-01T10:05:14.559Z,27.00
2017-12-01T10:06:17.040Z,23.60
2017-12-01T10:07:19.512Z,27.30
2017-12-01T10:08:21.996Z,22.48
2017-12-01T10:09:24.485Z,21.80
2017-12-01T10:10:26.963Z,22.70
2017-12-01T10:11:29.473Z,21.50
2017-12-01T10:12:31.955Z,20.77
2017-12-01T10:13:34.422Z,21.33
2017-12-01T10:14:36.897Z,20.95
2017-12-01T10:15:39.420Z,20.08
2017-12-01T10:16:41.916Z,18.87
2017-12-01T10:17:44.382Z,18.67
2017-12-01T10:18:46.867Z,18.37
2017-12-01T10:19:49.326Z,18.12
2017-12-01T10:20:51.808Z,18.25
2017-12-01T10:21:54.292Z,18.27
2017-12-01T10:22:56.751Z,17.92
2017-12-01T10:23:59.283Z,16.70
2017-12-01T10:25:01.757Z,17.00
2017-12-01T10:26:04.215Z,17.92
2017-12-01T10:27:06.712Z,17.73
2017-12-01T10:28:09.189Z,18.17
2017-12-01T10:29:11.664Z,15.27
2017-12-01T10:30:14.126Z,17.35
2017-12-01T10:31:16.597Z,16.55
2017-12-01T10:32:19.094Z,18.23
2017-12-01T10:33:21.560Z,19.62
2017-12-01T10:34:24.024Z,16.75
2017-12-01T10:35:26.491Z,16.85
2017-12-01T10:36:28.955Z,17.80
2017-12-01T10:37:31.432Z,18.95
2017-12-01T10:38:33.984Z,16.33
2017-12-01T10:39:36.457Z,18.25
2017-12-01T10:40:38.933Z,18.70
2017-12-01T10:41:41.391Z,20.40
2017-12-01T10:42:43.893Z,18.17
2017-12-01T10:43:46.391Z,18.25
2017-12-01T10:44:48.869Z,17.73
2017-12-01T10:45:51.330Z,16.95
2017-12-01T10:46:53.864Z,17.92
2017-12-01T10:47:56.364Z,17.45
2017-12-01T10:48:58.884Z,16.60
2017-12-01T10:50:01.361Z,18.25
2017-12-01T10:51:03.833Z,17.95
2017-12-01T10:52:06.295Z,21.23
2017-12-01T10:53:08.798Z,20.65
2017-12-01T10:54:11.274Z,25.88
2017-12-01T10:55:13.802Z,21.30
2017-12-01T10:56:16.259Z,23.00
2017-12-01T10:57:18.739Z,23.35
2017-12-01T10:58:21.241Z,23.42
2017-12-01T10:59:23.922Z,25.35
2017-12-01T11:00:26.524Z,22.08
2017-12-01T11:01:29.010Z,28.02
2017-12-01T11:02:31.612Z,24.85
2017-12-01T11:03:34.135Z,28.45
2017-12-01T11:04:36.654Z,22.35
2017-12-01T11:05:39.126Z,23.77
2017-12-01T11:06:41.601Z,21.83
2017-12-01T11:07:44.082Z,23.30
2017-12-01T11:08:46.594Z,20.80
2017-12-01T11:09:49.064Z,22.70
2017-12-01T11:10:51.541Z,20.10
2017-12-01T11:11:54.012Z,19.90
2017-12-01T11:12:56.484Z,18.87
2017-12-01T11:13:58.983Z,21.42
2017-12-01T11:15:01.455Z,21.08
2017-12-01T11:16:03.933Z,19.17
2017-12-01T11:17:06.413Z,19.92
2017-12-01T11:18:08.901Z,18.85
2017-12-01T11:19:11.399Z,19.30
2017-12-01T11:20:13.885Z,19.02
2017-12-01T11:21:16.366Z,19.37
2017-12-01T11:22:18.960Z,19.65
2017-12-01T11:23:21.418Z,18.35
2017-12-01T11:24:23.917Z,17.12
2017-12-01T11:25:26.379Z,15.50
2017-12-01T11:26:28.889Z,15.48
2017-12-01T11:27:31.354Z,15.82
2017-12-01T11:28:33.829Z,15.15
2017-12-01T11:29:36.324Z,15.52
2017-12-01T11:30:38.782Z,15.98
2017-12-01T11:31:41.257Z,15.40
2017-12-01T11:32:43.728Z,16.25
2017-12-01T11:33:46.209Z,15.77
2017-12-01T11:34:48.767Z,14.25
2017-12-01T11:35:51.245Z,13.80
2017-12-01T11:36:53.720Z,14.80
2017-12-01T11:37:56.174Z,14.45
2017-12-01T11:38:58.658Z,14.90
2017-12-01T11:40:01.150Z,15.95
2017-12-01T11:41:03.630Z,15.95
2017-12-01T11:42:06.109Z,18.23
2017-12-01T11:43:08.575Z,19.27
2017-12-01T11:44:11.049Z,19.65
2017-12-01T11:45:13.531Z,17.60
2017-12-01T11:46:16.012Z,14.65
2017-12-01T11:47:18.493Z,13.50
2017-12-01T11:48:21.006Z,15.35
2017-12-01T11:49:23.485Z,15.52
2017-12-01T11:50:25.989Z,15.02
2017-12-01T11:51:28.458Z,15.20
2017-12-01T11:52:30.923Z,15.60
2017-12-01T11:53:33.390Z,15.90
2017-12-01T11:54:35.860Z,16.20
2017-12-01T11:55:38.339Z,14.57
2017-12-01T11:56:40.803Z,16.00
2017-12-01T11:57:44.046Z,15.30
2017-12-01T11:58:46.518Z,15.18
2017-12-01T11:59:48.988Z,15.80
2017-12-01T12:00:54.030Z,15.65
2017-12-01T12:01:56.490Z,14.50
2017-12-01T12:02:58.970Z,14.13
2017-12-01T12:04:01.448Z,15.50
2017-12-01T12:05:03.929Z,13.95
2017-12-01T12:06:06.409Z,16.05
2017-12-01T12:07:08.885Z,15.05
2017-12-01T12:08:11.357Z,16.00
2017-12-01T12:09:13.822Z,15.07
2017-12-01T12:10:16.290Z,15.93
2017-12-01T12:11:18.769Z,14.90
2017-12-01T12:12:21.236Z,20.42
2017-12-01T12:13:23.723Z,19.20
2017-12-01T12:14:26.200Z,15.25
2017-12-01T12:15:28.663Z,15.65
2017-12-01T12:16:31.153Z,21.50
2017-12-01T12:17:33.634Z,125.78
2017-12-01T12:18:36.106Z,90.50
2017-12-01T12:19:38.588Z,67.15
2017-12-01T12:20:41.083Z,24.10
2017-12-01T12:21:43.569Z,42.13
2017-12-01T12:22:46.040Z,18.65
2017-12-01T12:23:48.515Z,18.12
2017-12-01T12:24:50.979Z,19.85
2017-12-01T12:25:53.595Z,30.42
2017-12-01T12:26:56.083Z,19.30
2017-12-01T12:27:58.548Z,23.33
2017-12-01T12:29:01.008Z,18.00
2017-12-01T12:30:03.524Z,16.58
2017-12-01T12:31:05.987Z,14.40
2017-12-01T12:32:08.449Z,17.85
2017-12-01T12:33:10.926Z,16.15
2017-12-01T12:34:13.391Z,18.17
2017-12-01T12:35:15.877Z,19.30
2017-12-01T12:36:18.334Z,17.10
2017-12-01T12:37:20.815Z,17.10
2017-12-01T12:38:23.290Z,21.58
2017-12-01T12:39:25.765Z,17.10
2017-12-01T12:40:28.226Z,19.30
2017-12-01T12:41:30.762Z,16.40
2017-12-01T12:42:33.250Z,16.95
2017-12-01T12:43:35.725Z,15.00
2017-12-01T12:44:38.183Z,16.35
2017-12-01T12:45:40.638Z,20.20
2017-12-01T12:46:43.090Z,22.52
2017-12-01T12:47:45.564Z,16.65
2017-12-01T12:48:48.040Z,23.20
2017-12-01T12:49:50.501Z,17.67
2017-12-01T12:50:53.094Z,15.25
2017-12-01T12:51:55.572Z,15.18
2017-12-01T12:52:58.030Z,16.98
2017-12-01T12:54:00.507Z,15.52
2017-12-01T12:55:02.990Z,15.20
2017-12-01T12:56:05.476Z,17.87
2017-12-01T12:57:08.040Z,18.45
2017-12-01T12:58:10.512Z,16.58
2017-12-01T12:59:12.976Z,17.75
2017-12-01T13:00:15.433Z,15.80
2017-12-01T13:01:17.912Z,14.65
2017-12-01T13:02:20.384Z,16.08
2017-12-01T13:03:22.866Z,16.17
2017-12-01T13:04:25.326Z,13.20
2017-12-01T13:05:27.805Z,14.38
2017-12-01T13:06:30.282Z,14.73
2017-12-01T13:07:32.815Z,16.05
2017-12-01T13:08:35.280Z,14.10
2017-12-01T13:09:37.770Z,16.10
2017-12-01T13:10:40.245Z,14.75
2017-12-01T13:11:42.730Z,15.70
2017-12-01T13:12:45.195Z,15.90
2017-12-01T13:13:47.673Z,16.17
2017-12-01T13:14:50.152Z,14.57
2017-12-01T13:15:52.640Z,16.67
2017-12-01T13:16:55.153Z,15.50
2017-12-01T13:17:57.619Z,34.25
2017-12-01T13:19:00.113Z,17.00
2017-12-01T13:20:02.603Z,29.23
2017-12-01T13:21:05.087Z,26.02
2017-12-01T13:22:07.574Z,20.73
2017-12-01T13:23:10.063Z,17.70
2017-12-01T13:24:12.564Z,17.60
2017-12-01T13:25:15.055Z,18.55
2017-12-01T13:26:17.551Z,20.40
2017-12-01T13:27:20.019Z,18.48
2017-12-01T13:28:22.496Z,18.05